createdAt,value
2023-02-11T00:14:35.715Z,81.8
2023-02-11T00:30:10.040Z,82.8
2023-02-11T00:45:44.384Z,80.3
2023-02-11T01:01:19.011Z,79.6
2023-02-11T01:16:53.609Z,77.7
2023-02-11T01:32:28.171Z,77.3
2023-02-11T01:48:02.500Z,77.9
2023-02-11T02:03:37.057Z,78.7
2023-02-11T02:19:11.460Z,76.8
2023-02-11T02:34:45.768Z,78
2023-02-11T02:50:20.089Z,76.8
2023-02-11T03:05:54.783Z,76.5
2023-02-11T03:21:29.203Z,77
2023-02-11T03:37:03.543Z,77.4
2023-02-11T03:52:37.871Z,76.3
2023-02-11T04:08:12.210Z,76.8
2023-02-11T04:23:46.541Z,75.9
2023-02-11T04:39:20.896Z,75
2023-02-11T04:54:55.232Z,74.7
2023-02-11T05:10:29.597Z,74.5
2023-02-11T05:26:03.930Z,74.1
2023-02-11T05:41:38.027Z,74.4
2023-02-11T05:57:12.545Z,73.8
2023-02-11T06:12:46.902Z,75.5
2023-02-11T06:28:21.560Z,75.2
2023-02-11T06:43:56.005Z,76.5
2023-02-11T06:59:30.354Z,74.7
2023-02-11T07:15:04.722Z,77
2023-02-11T07:30:39.104Z,75.1
2023-02-11T07:46:13.585Z,72.3
2023-02-11T08:01:48.267Z,74.2
2023-02-11T08:17:22.696Z,72.7
2023-02-11T08:32:57.050Z,72.8
2023-02-11T08:48:31.423Z,73.9
2023-02-11T09:04:05.836Z,72.7
2023-02-11T09:19:40.280Z,74.3
2023-02-11T09:35:14.679Z,71.4
2023-02-11T09:50:49.598Z,72.2
2023-02-11T10:06:24.568Z,70.8
2023-02-11T10:21:58.981Z,72.2
2023-02-11T10:37:33.387Z,69.8
2023-02-11T10:53:07.813Z,68.2
2023-02-11T11:08:42.377Z,65
2023-02-11T11:24:17.060Z,63.7
2023-02-11T11:39:51.472Z,64.4
2023-02-11T11:55:25.898Z,65.8
2023-02-11T12:11:00.356Z,65.3
2023-02-11T12:26:34.831Z,67
2023-02-11T12:42:09.229Z,67.7
2023-02-11T12:57:43.657Z,68
2023-02-11T13:13:18.222Z,67.3
2023-02-11T13:28:52.410Z,67.4
2023-02-11T13:44:26.856Z,67.3
2023-02-11T14:00:01.281Z,67.9
2023-02-11T14:15:35.716Z,68.6
2023-02-11T14:31:10.814Z,71.4
2023-02-11T14:46:45.605Z,71.5
2023-02-11T15:02:20.299Z,72.2
2023-02-11T15:17:54.840Z,74.2
2023-02-11T15:33:29.321Z,75.3
2023-02-11T15:49:03.724Z,76.2
2023-02-11T16:04:38.400Z,78.2
2023-02-11T16:20:12.987Z,79.8
2023-02-11T16:35:47.389Z,80.4
2023-02-11T16:51:22.448Z,81.4
2023-02-11T17:06:59.531Z,81.3
2023-02-11T17:22:33.938Z,81.8
2023-02-11T17:38:08.349Z,83.3
2023-02-11T17:53:42.745Z,83.8
2023-02-11T18:09:17.143Z,84.4
2023-02-11T18:24:51.527Z,84.7
2023-02-11T18:40:25.928Z,85.5
2023-02-11T18:56:00.309Z,86.4
2023-02-11T19:11:34.705Z,87.2
2023-02-11T19:27:09.066Z,87.2
2023-02-11T19:42:43.460Z,89.7
2023-02-11T19:58:17.841Z,90.9
2023-02-11T20:13:52.217Z,91.2
2023-02-11T20:29:26.770Z,92
2023-02-11T20:45:01.327Z,92.5
2023-02-11T21:00:35.843Z,93
2023-02-11T21:16:10.635Z,93.2
2023-02-11T21:31:45.974Z,93.4
2023-02-11T21:47:20.593Z,94.5
2023-02-11T22:02:54.969Z,93.5
2023-02-11T22:18:29.321Z,95.5
2023-02-11T22:34:03.735Z,96.5
2023-02-11T22:49:38.117Z,96.6
2023-02-11T23:05:13.670Z,96.3
2023-02-11T23:20:48.053Z,96.7
2023-02-11T23:36:22.952Z,97.2
2023-02-11T23:51:57.362Z,96.8
